Time;durP1;ratioP1;P1;durP2;ratioP2;P2;SDS_P1;SDS_P2;PMS_P1;PMS_P2;Temp;Humidity;BMP_temperature;BMP_pressure;BME280_temperature;BME280_humidity;BME280_pressure;Samples;Min_cycle;Max_cycle;Signal;HPM_P1;HPM_P2
2023/01/14 00:02:21;;;;;;;41.85;20.15;;;;;;;4.91;100.00;99046.75;4500842;31;20163;-69
2023/01/14 00:04:49;;;;;;;43.13;20.00;;;;;;;4.89;100.00;99049.47;4500924;31;20114;-69
2023/01/14 00:07:16;;;;;;;41.35;18.98;;;;;;;4.93;100.00;99042.31;4500609;31;20118;-69
2023/01/14 00:09:43;;;;;;;43.20;19.80;;;;;;;4.86;100.00;99044.47;4494462;31;20092;-69
2023/01/14 00:12:11;;;;;;;41.92;20.10;;;;;;;4.79;100.00;99040.56;4485044;31;20105;-69
2023/01/14 00:14:38;;;;;;;42.55;18.70;;;;;;;4.71;100.00;99041.03;4485040;31;20164;-69
2023/01/14 00:17:05;;;;;;;40.15;18.10;;;;;;;4.65;100.00;99041.41;4484521;31;20100;-70
2023/01/14 00:19:32;;;;;;;50.70;22.83;;;;;;;4.61;100.00;99038.13;4484940;31;20152;-69
2023/01/14 00:21:59;;;;;;;45.15;21.37;;;;;;;4.73;100.00;99044.34;4492461;31;20370;-69
2023/01/14 00:24:26;;;;;;;107.95;22.98;;;;;;;4.70;100.00;99043.72;4500504;31;20152;-69
2023/01/14 00:26:55;;;;;;;127.93;22.05;;;;;;;4.78;100.00;99042.34;4500643;31;20096;-69
2023/01/14 00:29:26;;;;;;;217.85;26.58;;;;;;;4.75;100.00;99029.53;4498911;31;20156;-69
2023/01/14 00:31:58;;;;;;;195.65;26.10;;;;;;;4.68;100.00;99037.78;4500802;31;20083;-70
2023/01/14 00:34:26;;;;;;;259.05;29.77;;;;;;;4.64;100.00;99044.09;4500322;31;20144;-69
2023/01/14 00:36:54;;;;;;;175.27;21.80;;;;;;;4.59;100.00;99037.41;4500527;31;20505;-69
2023/01/14 00:39:21;;;;;;;195.30;23.58;;;;;;;4.59;100.00;99057.34;4500321;31;20095;-69
2023/01/14 00:41:49;;;;;;;208.95;23.45;;;;;;;4.49;100.00;99051.03;4500600;31;20465;-69
2023/01/14 00:44:19;;;;;;;191.00;22.02;;;;;;;4.44;100.00;99048.72;4500549;31;20437;-69
2023/01/14 00:46:46;;;;;;;234.90;25.90;;;;;;;4.39;100.00;99049.00;4500729;31;20126;-70
2023/01/14 00:49:17;;;;;;;160.93;26.73;;;;;;;4.40;100.00;99047.22;4500156;31;20635;-69
2023/01/14 00:51:45;;;;;;;308.67;30.62;;;;;;;4.46;100.00;99046.03;4500383;31;20088;-69
2023/01/14 00:54:13;;;;;;;215.65;26.58;;;;;;;4.44;100.00;99046.13;4500203;31;20076;-69
2023/01/14 00:56:40;;;;;;;209.55;22.10;;;;;;;4.50;100.00;99052.72;4500206;31;20138;-69
2023/01/14 00:59:21;;;;;;;157.70;22.40;;;;;;;4.47;100.00;99048.53;4500077;31;20100;-69
2023/01/14 01:01:51;;;;;;;301.98;28.35;;;;;;;4.42;100.00;99048.81;4500160;31;20465;-69
2023/01/14 01:04:19;;;;;;;173.90;21.05;;;;;;;4.44;100.00;99057.31;4500025;31;20092;-69
2023/01/14 01:06:46;;;;;;;127.80;18.75;;;;;;;4.44;100.00;99043.53;4500159;31;20509;-69
2023/01/14 01:09:13;;;;;;;320.80;37.47;;;;;;;4.42;100.00;99046.22;4496751;31;20534;-69
2023/01/14 01:11:40;;;;;;;251.23;25.80;;;;;;;4.39;100.00;99035.16;4484298;31;20147;-69
2023/01/14 01:14:09;;;;;;;222.37;22.95;;;;;;;4.35;100.00;99039.72;4484054;31;20100;-69
2023/01/14 01:16:36;;;;;;;183.40;21.40;;;;;;;4.31;100.00;99040.81;4484235;31;20101;-69
2023/01/14 01:19:05;;;;;;;147.40;21.05;;;;;;;4.31;100.00;99047.75;4484007;31;20092;-69
2023/01/14 01:21:32;;;;;;;136.02;19.40;;;;;;;4.30;100.00;99046.94;4488612;31;20099;-69
2023/01/14 01:23:59;;;;;;;181.63;22.67;;;;;;;4.23;100.00;99051.62;4499826;31;20100;-69
2023/01/14 01:26:27;;;;;;;133.87;21.25;;;;;;;4.31;100.00;99053.78;4499836;31;20118;-69
2023/01/14 01:28:57;;;;;;;118.70;19.52;;;;;;;4.33;100.00;99046.75;4501209;31;20507;-69
2023/01/14 01:31:26;;;;;;;123.97;20.45;;;;;;;4.34;100.00;99048.41;4501993;31;20079;-69
2023/01/14 01:33:54;;;;;;;144.43;19.65;;;;;;;4.24;100.00;99058.50;4501991;31;20124;-69
2023/01/14 01:36:27;;;;;;;101.82;20.08;;;;;;;4.22;100.00;99056.91;4501984;31;20516;-69
2023/01/14 01:38:55;;;;;;;94.32;18.95;;;;;;;4.25;100.00;99054.13;4501866;31;20576;-69
2023/01/14 01:41:25;;;;;;;157.23;23.12;;;;;;;4.25;100.00;99059.31;4501968;31;20904;-69
2023/01/14 01:44:13;;;;;;;153.12;26.55;;;;;;;4.13;100.00;99060.03;4501859;31;20096;-69
2023/01/14 01:46:41;;;;;;;126.18;20.40;;;;;;;4.10;100.00;99053.28;4502092;31;20116;-69
2023/01/14 01:49:15;;;;;;;67.10;18.08;;;;;;;4.15;100.00;99050.41;4501594;31;20163;-69
2023/01/14 01:51:49;;;;;;;121.57;20.10;;;;;;;4.15;100.00;99045.22;4502117;31;20100;-69
2023/01/14 01:54:18;;;;;;;66.15;18.40;;;;;;;4.15;100.00;99042.63;4501794;31;20187;-69
2023/01/14 01:56:46;;;;;;;103.28;20.12;;;;;;;4.17;100.00;99053.75;4501787;31;20556;-69
2023/01/14 01:59:19;;;;;;;138.82;20.42;;;;;;;4.17;100.00;99058.94;4501594;31;20446;-69
2023/01/14 02:01:48;;;;;;;204.10;27.20;;;;;;;4.23;100.00;99054.22;4501738;31;20100;-69
2023/01/14 02:04:17;;;;;;;100.82;18.62;;;;;;;4.13;100.00;99054.84;4500406;31;20149;-69
2023/01/14 02:06:44;;;;;;;349.58;28.33;;;;;;;4.17;100.00;99052.00;4501615;31;20548;-69
2023/01/14 02:09:11;;;;;;;145.35;21.23;;;;;;;4.17;100.00;99056.34;4498943;31;20108;-69
2023/01/14 02:12:04;;;;;;;266.10;23.75;;;;;;;4.16;100.00;99052.91;4485034;32;20572;-69
2023/01/14 02:15:10;;;;;;;214.20;27.23;;;;;;;4.16;100.00;99057.28;4485944;31;20401;-69
2023/01/14 02:18:10;;;;;;;277.15;31.65;;;;;;;4.21;100.00;99063.00;4485864;31;20113;-69
2023/01/14 02:20:41;;;;;;;317.87;29.12;;;;;;;4.13;100.00;99060.88;4484581;32;20131;-69
2023/01/14 02:23:24;;;;;;;338.50;25.27;;;;;;;4.12;100.00;99058.38;4469731;32;20107;-69
2023/01/14 02:26:10;;;;;;;281.05;26.60;;;;;;;4.04;100.00;99051.88;4470058;32;20159;-69
2023/01/14 02:28:56;;;;;;;232.35;27.20;;;;;;;3.99;100.00;99061.66;4470383;32;20403;-69
2023/01/14 02:32:01;;;;;;;269.05;21.27;;;;;;;3.99;100.00;99059.06;4470161;32;20108;-69
2023/01/14 02:35:16;;;;;;;266.02;26.70;;;;;;;3.91;100.00;99061.28;4470145;32;20176;-69
2023/01/14 02:38:11;;;;;;;169.35;19.50;;;;;;;3.97;100.00;99063.53;4464103;32;20445;-69
2023/01/14 02:40:57;;;;;;;206.40;22.92;;;;;;;3.92;100.00;99057.75;4468923;32;20168;-69
2023/01/14 02:46:32;;;;;;;282.83;27.50;;;;;;;3.81;100.00;99070.50;4468699;32;20144;-69
2023/01/14 02:49:04;;;;;;;283.70;23.85;;;;;;;3.80;100.00;99061.06;4468645;32;20208;-69
2023/01/14 02:51:32;;;;;;;140.57;19.77;;;;;;;3.82;100.00;99060.06;4469016;32;20131;-69
2023/01/14 02:53:59;;;;;;;145.15;21.12;;;;;;;3.85;100.00;99070.25;4470125;32;20105;-69
2023/01/14 02:56:27;;;;;;;154.27;19.40;;;;;;;3.76;100.00;99072.53;4469812;32;20502;-69
2023/01/14 02:59:00;;;;;;;65.55;14.35;;;;;;;3.80;100.00;99074.88;4470176;32;20123;-69
2023/01/14 03:01:59;;;;;;;93.15;15.95;;;;;;;3.76;100.00;99073.34;4469962;32;20120;-69
2023/01/14 03:04:53;;;;;;;68.18;14.93;;;;;;;3.61;100.00;99075.03;4469669;32;20080;-69
2023/01/14 03:07:46;;;;;;;99.55;16.77;;;;;;;3.47;100.00;99077.59;4462379;32;20457;-69
2023/01/14 03:10:26;;;;;;;54.67;14.82;;;;;;;3.40;100.00;99089.19;4479157;32;20472;-69
2023/01/14 03:13:13;;;;;;;63.17;18.90;;;;;;;3.32;100.00;99085.25;4485580;31;20096;-69
2023/01/14 03:15:52;;;;;;;55.30;14.13;;;;;;;3.12;100.00;99090.66;4485630;32;20123;-69
2023/01/14 03:18:26;;;;;;;79.57;14.93;;;;;;;3.13;100.00;99089.75;4485495;32;20107;-69
2023/01/14 03:21:06;;;;;;;102.45;18.33;;;;;;;3.05;100.00;99097.09;4486012;31;20431;-69
2023/01/14 03:23:38;;;;;;;106.55;15.63;;;;;;;3.02;100.00;99095.50;4500314;31;20084;-69
2023/01/14 03:26:06;;;;;;;101.53;16.62;;;;;;;2.89;100.00;99094.47;4499722;31;20122;-69
2023/01/14 03:28:36;;;;;;;60.97;14.65;;;;;;;2.88;100.00;99095.38;4499977;31;20084;-69
2023/01/14 03:31:09;;;;;;;70.40;14.00;;;;;;;2.81;100.00;99089.69;4501079;31;20539;-69
2023/01/14 03:33:41;;;;;;;54.95;14.32;;;;;;;2.82;100.00;99096.56;4500092;31;20236;-68
2023/01/14 03:36:09;;;;;;;55.72;12.98;;;;;;;2.83;100.00;99088.72;4501049;31;20085;-69
2023/01/14 03:38:41;;;;;;;39.83;13.52;;;;;;;2.87;100.00;99094.56;4500076;31;20452;-68
2023/01/14 03:41:11;;;;;;;30.10;12.93;;;;;;;2.87;100.00;99097.12;4500061;31;20152;-69
2023/01/14 03:43:58;;;;;;;25.65;12.00;;;;;;;2.76;100.00;99102.88;4499830;31;20089;-69
2023/01/14 03:46:25;;;;;;;23.08;12.60;;;;;;;2.70;100.00;99099.78;4499678;31;20108;-69
2023/01/14 03:48:52;;;;;;;29.65;13.65;;;;;;;2.70;100.00;99098.03;4501139;31;20510;-69
2023/01/14 03:51:29;;;;;;;29.20;13.10;;;;;;;2.73;100.00;99102.22;4499920;31;20159;-69
2023/01/14 03:54:40;;;;;;;26.00;11.65;;;;;;;2.75;100.00;99101.19;4501004;31;20113;-68
2023/01/14 03:57:12;;;;;;;30.65;13.70;;;;;;;2.81;100.00;99108.63;4423144;32;20515;-68
2023/01/14 03:59:51;;;;;;;30.27;13.68;;;;;;;2.77;100.00;99111.47;4423343;32;20120;-68
2023/01/14 04:02:19;;;;;;;29.40;13.38;;;;;;;2.70;100.00;99108.38;4423190;32;20458;-68
2023/01/14 04:04:47;;;;;;;31.85;13.48;;;;;;;2.67;100.00;99103.34;4423459;32;20474;-68
2023/01/14 04:07:15;;;;;;;32.33;14.82;;;;;;;2.78;100.00;99095.03;4423248;32;20608;-68
2023/01/14 04:09:42;;;;;;;29.12;13.73;;;;;;;2.85;100.00;99098.97;4414638;32;20156;-69
2023/01/14 04:12:09;;;;;;;32.03;14.18;;;;;;;2.86;100.00;99107.56;4405122;32;20094;-69
2023/01/14 04:17:22;;;;;;;31.98;12.68;;;;;;;2.99;100.00;99103.44;4405126;32;20148;-68
2023/01/14 04:19:49;;;;;;;27.98;13.00;;;;;;;3.02;100.00;99101.50;4405147;32;20112;-69
2023/01/14 04:22:16;;;;;;;29.55;13.30;;;;;;;2.99;100.00;99114.59;4423192;32;20101;-68
2023/01/14 04:24:44;;;;;;;27.33;12.48;;;;;;;2.99;100.00;99116.37;4435631;32;20193;-69
2023/01/14 04:27:11;;;;;;;26.30;13.55;;;;;;;2.95;100.00;99120.03;4435558;32;20092;-69
2023/01/14 04:29:38;;;;;;;36.13;15.25;;;;;;;2.88;100.00;99118.66;4435842;32;20524;-69
2023/01/14 04:32:06;;;;;;;32.50;16.80;;;;;;;2.80;100.00;99119.06;4454347;31;20493;-69
2023/01/14 04:34:33;;;;;;;34.10;17.60;;;;;;;2.74;100.00;99116.81;4499218;31;20108;-69
2023/01/14 04:37:00;;;;;;;33.40;15.75;;;;;;;2.67;100.00;99122.28;4500504;31;20481;-69
2023/01/14 04:39:27;;;;;;;29.23;14.20;;;;;;;2.74;100.00;99130.59;4500608;31;20498;-68
2023/01/14 04:44:40;;;;;;;30.00;13.30;;;;;;;2.66;100.00;99138.75;4500328;31;20140;-69
2023/01/14 04:47:07;;;;;;;25.60;12.32;;;;;;;2.63;100.00;99143.22;4500448;31;20151;-68
2023/01/14 04:49:34;;;;;;;31.73;13.27;;;;;;;2.60;100.00;99143.38;4500615;31;20472;-68
2023/01/14 04:52:01;;;;;;;30.35;14.02;;;;;;;2.61;100.00;99145.06;4500354;31;20112;-69
2023/01/14 04:54:29;;;;;;;33.60;13.60;;;;;;;2.59;100.00;99147.72;4500137;31;20088;-68
2023/01/14 04:56:56;;;;;;;26.10;12.63;;;;;;;2.44;100.00;99153.66;4500236;31;20091;-69
2023/01/14 04:59:23;;;;;;;24.37;12.80;;;;;;;2.35;100.00;99156.69;4500208;31;20198;-69
2023/01/14 05:01:50;;;;;;;22.65;11.45;;;;;;;2.29;100.00;99150.91;4500719;31;20126;-68
2023/01/14 05:04:17;;;;;;;39.50;13.10;;;;;;;2.30;100.00;99146.56;4500707;31;20544;-68
2023/01/14 05:06:45;;;;;;;23.05;10.85;;;;;;;2.35;100.00;99148.91;4502075;31;20148;-69
2023/01/14 05:09:12;;;;;;;23.77;11.38;;;;;;;2.45;100.00;99150.16;4499330;31;20160;-68
2023/01/14 05:11:39;;;;;;;20.95;9.88;;;;;;;2.49;100.00;99144.75;4486279;31;20136;-69
2023/01/14 05:14:06;;;;;;;22.50;10.10;;;;;;;2.64;100.00;99143.12;4486212;31;20093;-69
2023/01/14 05:16:33;;;;;;;25.83;9.77;;;;;;;2.72;100.00;99152.28;4485042;32;20109;-69
2023/01/14 05:19:00;;;;;;;20.48;9.02;;;;;;;2.82;100.00;99150.91;4486348;31;20160;-69
2023/01/14 05:21:27;;;;;;;20.80;9.63;;;;;;;2.95;100.00;99153.66;4490269;31;20108;-69
2023/01/14 05:23:54;;;;;;;14.68;8.30;;;;;;;3.06;100.00;99147.94;4502152;31;20548;-69
2023/01/14 05:26:22;;;;;;;16.25;8.50;;;;;;;3.10;100.00;99157.22;4502294;31;20144;-69
2023/01/14 05:28:49;;;;;;;18.35;8.80;;;;;;;3.20;100.00;99155.81;4501972;31;20159;-69
2023/01/14 05:31:16;;;;;;;17.52;8.60;;;;;;;3.23;100.00;99152.25;4502254;31;20641;-69
2023/01/14 05:33:43;;;;;;;20.55;8.05;;;;;;;3.26;100.00;99152.91;4501917;31;20092;-69
2023/01/14 05:36:11;;;;;;;16.20;8.73;;;;;;;3.24;100.00;99154.75;4502354;31;20104;-69
2023/01/14 05:38:38;;;;;;;20.55;8.27;;;;;;;3.31;100.00;99155.25;4502309;31;20089;-69
2023/01/14 05:41:05;;;;;;;12.55;6.30;;;;;;;3.34;100.00;99165.44;4502209;31;20119;-69
2023/01/14 05:46:18;;;;;;;14.55;7.75;;;;;;;3.45;100.00;99164.88;4502103;31;20156;-69
2023/01/14 05:48:45;;;;;;;18.37;8.43;;;;;;;3.47;100.00;99168.22;4501926;31;20547;-69
2023/01/14 05:51:13;;;;;;;16.73;8.52;;;;;;;3.39;100.00;99168.63;4501871;31;20115;-69
2023/01/14 05:53:40;;;;;;;15.85;8.82;;;;;;;3.39;100.00;99168.63;4501980;31;20155;-69
2023/01/14 05:56:08;;;;;;;18.25;8.40;;;;;;;3.39;100.00;99171.22;4501806;31;20112;-69
2023/01/14 05:58:35;;;;;;;24.35;9.10;;;;;;;3.37;100.00;99175.63;4502054;31;20084;-69
2023/01/14 06:06:43;;;;;;;20.83;9.20;;;;;;;3.22;100.00;99187.63;4501809;31;20080;-69
2023/01/14 06:09:11;;;;;;;18.85;8.88;;;;;;;3.22;100.00;99198.00;4499003;31;20107;-69
2023/01/14 06:12:01;;;;;;;21.00;10.10;;;;;;;3.19;100.00;99200.75;4485907;31;20144;-69
2023/01/14 06:14:33;;;;;;;19.08;9.45;;;;;;;3.12;100.00;99210.59;4485458;31;20468;-69
2023/01/14 06:17:04;;;;;;;20.30;9.40;;;;;;;3.06;100.00;99213.50;4485948;31;20092;-69
2023/01/14 06:19:32;;;;;;;19.60;9.20;;;;;;;2.99;100.00;99218.13;4486290;32;20088;-69
2023/01/14 06:21:59;;;;;;;17.95;9.85;;;;;;;2.93;100.00;99226.22;4493312;31;20084;-69
2023/01/14 06:24:26;;;;;;;23.42;10.80;;;;;;;2.93;100.00;99215.84;4501722;31;20096;-69
2023/01/14 06:26:53;;;;;;;18.85;9.05;;;;;;;3.00;100.00;99214.63;4501613;31;20171;-69
2023/01/14 06:29:20;;;;;;;16.83;9.30;;;;;;;3.06;100.00;99210.06;4501468;31;20606;-69
2023/01/14 06:31:47;;;;;;;22.60;10.55;;;;;;;3.07;100.00;99209.97;4501595;31;20092;-69
2023/01/14 06:34:15;;;;;;;25.25;10.27;;;;;;;3.08;100.00;99210.84;4501396;31;20498;-69
2023/01/14 06:36:42;;;;;;;23.67;10.52;;;;;;;3.14;100.00;99208.75;4501602;31;20167;-69
2023/01/14 06:39:09;;;;;;;22.85;10.43;;;;;;;3.08;100.00;99211.66;4501579;31;20483;-69
2023/01/14 06:41:36;;;;;;;20.30;10.35;;;;;;;3.16;100.00;99211.25;4501426;31;20138;-69
2023/01/14 06:44:03;;;;;;;22.85;10.10;;;;;;;3.12;100.00;99213.19;4501454;31;20119;-69
2023/01/14 06:46:30;;;;;;;24.92;10.35;;;;;;;3.04;100.00;99211.91;4501351;31;20095;-69
2023/01/14 06:48:58;;;;;;;20.15;9.63;;;;;;;2.96;100.00;99223.47;4501514;31;20155;-69
2023/01/14 06:51:25;;;;;;;19.75;9.40;;;;;;;2.95;100.00;99224.41;4501376;31;20116;-69
2023/01/14 06:53:53;;;;;;;20.52;9.40;;;;;;;2.95;100.00;99221.81;4501248;31;20149;-69
2023/01/14 06:56:20;;;;;;;23.17;10.38;;;;;;;2.96;100.00;99223.47;4501297;31;20123;-69
2023/01/14 06:58:49;;;;;;;21.02;9.55;;;;;;;2.92;100.00;99214.22;4501253;31;20110;-69
2023/01/14 07:01:17;;;;;;;18.65;9.43;;;;;;;2.88;100.00;99225.63;4501547;31;20169;-69
2023/01/14 07:03:44;;;;;;;18.37;9.05;;;;;;;2.90;100.00;99221.19;4501138;31;20199;-69
2023/01/14 07:06:11;;;;;;;19.37;9.52;;;;;;;2.88;100.00;99235.09;4501167;31;20163;-69
2023/01/14 07:08:38;;;;;;;18.45;9.23;;;;;;;2.82;100.00;99241.44;4501726;31;20532;-69
2023/01/14 07:11:06;;;;;;;20.50;9.20;;;;;;;2.83;100.00;99235.34;4485888;31;20122;-69
2023/01/14 07:13:33;;;;;;;20.10;8.70;;;;;;;2.87;100.00;99236.03;4485479;31;20157;-69
2023/01/14 07:16:00;;;;;;;19.10;8.63;;;;;;;2.91;100.00;99241.00;4485452;32;20435;-69
2023/01/14 07:18:28;;;;;;;14.75;7.60;;;;;;;3.08;100.00;99253.06;4485388;31;20096;-69
2023/01/14 07:20:57;;;;;;;16.30;7.57;;;;;;;3.23;100.00;99238.50;4485901;31;20151;-69
2023/01/14 07:23:25;;;;;;;18.42;7.85;;;;;;;3.38;100.00;99245.47;4501287;31;20171;-69
2023/01/14 07:25:55;;;;;;;15.48;7.65;;;;;;;3.47;100.00;99243.34;4499951;31;20164;-69
2023/01/14 07:28:25;;;;;;;12.73;6.60;;;;;;;3.50;100.00;99243.19;4501366;31;20083;-69
2023/01/14 07:30:52;;;;;;;15.02;8.13;;;;;;;3.59;100.00;99242.69;4501070;31;20471;-69
2023/01/14 07:33:21;;;;;;;20.62;7.80;;;;;;;3.60;100.00;99243.53;4501042;31;20089;-69
2023/01/14 07:35:52;;;;;;;17.75;8.25;;;;;;;3.66;100.00;99245.78;4501180;31;20500;-69
2023/01/14 07:38:21;;;;;;;17.45;8.13;;;;;;;3.67;100.00;99244.88;4501184;31;20084;-69
2023/01/14 07:40:48;;;;;;;14.85;7.85;;;;;;;3.65;100.00;99239.78;4501502;31;20467;-69
2023/01/14 07:43:16;;;;;;;17.85;8.27;;;;;;;3.69;100.00;99249.06;4501007;31;20103;-69
2023/01/14 07:45:43;;;;;;;17.67;8.02;;;;;;;3.68;100.00;99241.34;4501068;31;20096;-69
2023/01/14 07:48:11;;;;;;;18.15;7.40;;;;;;;3.70;100.00;99248.13;4501129;31;20118;-69
2023/01/14 07:50:38;;;;;;;18.30;6.60;;;;;;;3.73;100.00;99250.56;4501122;31;20110;-69
2023/01/14 07:53:05;;;;;;;16.08;7.25;;;;;;;3.84;100.00;99249.97;4501149;31;20559;-69
2023/01/14 07:55:34;;;;;;;14.23;7.15;;;;;;;3.89;100.00;99257.50;4500797;31;20133;-69
2023/01/14 07:58:02;;;;;;;16.65;6.93;;;;;;;3.99;100.00;99258.69;4501010;31;20118;-69
2023/01/14 08:00:29;;;;;;;13.62;7.28;;;;;;;3.91;100.00;99266.06;4500651;31;20160;-69
2023/01/14 08:02:56;;;;;;;18.02;7.80;;;;;;;3.95;100.00;99257.19;4500953;31;20109;-69
2023/01/14 08:05:23;;;;;;;13.77;7.85;;;;;;;4.01;100.00;99254.28;4500723;31;20231;-69
2023/01/14 08:07:50;;;;;;;15.77;7.40;;;;;;;4.07;100.00;99255.66;4500886;31;20531;-69
2023/01/14 08:10:18;;;;;;;15.93;7.62;;;;;;;4.15;100.00;99263.88;4490810;31;20155;-69
2023/01/14 08:12:46;;;;;;;15.07;6.28;;;;;;;4.17;100.00;99263.81;4485108;32;20088;-69
2023/01/14 08:15:13;;;;;;;13.15;6.85;;;;;;;4.31;100.00;99266.44;4484927;31;20789;-69
2023/01/14 08:17:40;;;;;;;16.90;6.87;;;;;;;4.40;100.00;99271.13;4485388;32;20147;-69
2023/01/14 08:20:09;;;;;;;14.57;6.78;;;;;;;4.44;100.00;99269.22;4483674;32;20099;-69
2023/01/14 08:22:36;;;;;;;15.20;7.00;;;;;;;4.59;100.00;99280.50;4496694;31;20180;-69
2023/01/14 08:25:05;;;;;;;15.40;6.85;;;;;;;4.67;100.00;99278.28;4500794;31;20139;-69
2023/01/14 08:27:33;;;;;;;15.35;7.28;;;;;;;4.64;100.00;99267.25;4501014;31;20118;-69
2023/01/14 08:30:00;;;;;;;14.05;6.93;;;;;;;4.77;100.00;99271.66;4500741;31;20095;-69
2023/01/14 08:32:29;;;;;;;14.52;6.43;;;;;;;4.88;100.00;99278.00;4500544;31;20134;-70
2023/01/14 08:34:56;;;;;;;13.88;6.50;;;;;;;4.97;100.00;99280.06;4500443;31;20096;-69
2023/01/14 08:37:23;;;;;;;15.82;7.43;;;;;;;5.14;100.00;99287.69;4500113;31;20460;-69
2023/01/14 08:39:50;;;;;;;12.73;6.00;;;;;;;5.14;100.00;99292.87;4500511;31;20460;-70
2023/01/14 08:42:17;;;;;;;13.38;6.55;;;;;;;5.13;100.00;99299.03;4500549;31;20116;-69
2023/01/14 08:44:44;;;;;;;11.98;5.78;;;;;;;5.17;100.00;99304.03;4497578;31;86414;-69
2023/01/14 08:47:13;;;;;;;16.30;7.65;;;;;;;5.09;100.00;99307.09;4500375;31;20444;-69
2023/01/14 08:49:40;;;;;;;11.70;7.18;;;;;;;5.22;100.00;99312.38;4500504;31;20500;-69
2023/01/14 08:52:07;;;;;;;16.65;7.70;;;;;;;5.46;100.00;99316.13;4500372;31;20092;-70
2023/01/14 08:54:34;;;;;;;16.20;7.40;;;;;;;5.36;100.00;99322.81;4500385;31;20187;-70
2023/01/14 08:57:02;;;;;;;21.27;8.70;;;;;;;5.46;100.00;99318.72;4500189;31;20446;-69
2023/01/14 08:59:29;;;;;;;16.17;7.32;;;;;;;5.45;100.00;99309.28;4500012;31;20125;-70
2023/01/14 09:01:56;;;;;;;15.05;7.07;;;;;;;5.69;100.00;99309.56;4500240;31;20143;-69
2023/01/14 09:04:27;;;;;;;14.85;7.03;;;;;;;5.77;100.00;99314.31;4500035;31;20138;-69
2023/01/14 09:18:00;;;;;;;11.32;6.12;;;;;;;6.08;100.00;99328.03;4484230;32;20163;-70
2023/01/14 09:20:35;;;;;;;13.23;5.93;;;;;;;6.26;100.00;99333.06;4484116;32;20096;-70
2023/01/14 09:23:03;;;;;;;13.13;5.70;;;;;;;6.22;100.00;99333.25;4468702;32;20123;-70
2023/01/14 09:25:30;;;;;;;11.43;6.40;;;;;;;6.01;100.00;99327.59;4468502;32;20164;-70
2023/01/14 09:27:58;;;;;;;12.18;5.87;;;;;;;6.20;100.00;99334.25;4468385;32;20175;-70
2023/01/14 09:30:26;;;;;;;11.55;5.75;;;;;;;6.09;100.00;99324.53;4468485;32;20157;-70
2023/01/14 09:32:54;;;;;;;16.15;5.65;;;;;;;6.18;100.00;99313.53;4468198;32;20351;-70
2023/01/14 09:35:21;;;;;;;13.00;5.07;;;;;;;6.19;100.00;99322.19;4468122;32;20154;-70
2023/01/14 09:37:48;;;;;;;14.63;6.97;;;;;;;6.38;100.00;99317.50;4468349;32;20532;-70
2023/01/14 09:40:16;;;;;;;11.07;5.35;;;;;;;6.35;100.00;99317.69;4468447;32;20101;-70
2023/01/14 09:42:48;;;;;;;13.43;5.57;;;;;;;6.33;100.00;99319.56;4466772;32;20115;-70
2023/01/14 09:45:30;;;;;;;12.82;5.68;;;;;;;6.47;100.00;99316.09;4468065;32;20567;-70
2023/01/14 09:48:13;;;;;;;11.02;4.57;;;;;;;6.59;100.00;99316.25;4468471;32;20152;-70
2023/01/14 09:50:56;;;;;;;10.68;5.05;;;;;;;6.62;100.00;99314.28;4469232;32;20378;-70
2023/01/14 09:53:42;;;;;;;10.88;4.70;;;;;;;6.64;100.00;99317.59;4469123;32;20119;-70
2023/01/14 09:56:44;;;;;;;8.95;4.43;;;;;;;6.88;100.00;99317.78;4470134;32;20144;-70
2023/01/14 09:59:29;;;;;;;9.30;4.15;;;;;;;7.03;100.00;99315.94;4436572;32;20117;-70
2023/01/14 10:02:03;;;;;;;12.13;4.95;;;;;;;7.03;100.00;99328.16;4437136;32;20102;-70
2023/01/14 10:04:45;;;;;;;6.43;3.40;;;;;;;7.05;100.00;99324.50;4424040;32;20129;-70
2023/01/14 10:07:13;;;;;;;6.50;3.72;;;;;;;6.93;100.00;99326.16;4436617;32;20159;-70
2023/01/14 10:09:49;;;;;;;8.45;4.30;;;;;;;7.07;100.00;99324.38;4442426;32;20438;-70
2023/01/14 10:12:45;;;;;;;7.25;3.35;;;;;;;7.18;100.00;99316.72;4439159;32;20093;-70
2023/01/14 10:15:18;;;;;;;7.25;3.58;;;;;;;7.06;100.00;99315.75;4390856;32;20106;-70
2023/01/14 10:17:51;;;;;;;9.13;4.00;;;;;;;7.17;100.00;99309.81;4390885;32;20132;-70
2023/01/14 10:20:25;;;;;;;6.43;3.40;;;;;;;7.10;100.00;99305.94;4390930;32;20156;-70
2023/01/14 10:22:57;;;;;;;7.72;3.90;;;;;;;7.09;100.00;99309.50;4378345;32;20114;-70
2023/01/14 10:25:24;;;;;;;8.32;4.43;;;;;;;7.27;100.00;99316.09;4378603;32;20225;-70
2023/01/14 10:27:59;;;;;;;8.48;4.07;;;;;;;7.36;100.00;99317.25;4390695;32;20575;-70
2023/01/14 10:30:33;;;;;;;9.10;3.80;;;;;;;7.36;100.00;99316.41;4378316;32;20106;-70
2023/01/14 10:33:03;;;;;;;11.85;4.28;;;;;;;7.14;100.00;99315.22;4390641;32;20104;-70
2023/01/14 10:35:34;;;;;;;9.02;4.12;;;;;;;7.33;100.00;99308.78;4391144;32;20114;-70
2023/01/14 10:38:01;;;;;;;12.43;3.90;;;;;;;7.20;100.00;99307.00;4421237;32;20106;-70
2023/01/14 10:40:29;;;;;;;10.60;4.20;;;;;;;7.33;100.00;99303.56;4421175;32;20085;-70
2023/01/14 10:42:58;;;;;;;8.85;4.25;;;;;;;7.39;100.00;99304.00;4421367;32;20106;-70
2023/01/14 10:45:25;;;;;;;10.75;3.95;;;;;;;7.22;100.00;99301.69;4408344;32;20106;-70
2023/01/14 10:48:02;;;;;;;10.60;4.50;;;;;;;7.27;100.00;99302.25;4428100;32;20093;-70
2023/01/14 10:50:30;;;;;;;10.82;3.87;;;;;;;7.36;100.00;99293.78;4423216;32;20093;-70
2023/01/14 10:53:23;;;;;;;7.35;3.97;;;;;;;7.33;100.00;99308.78;4485461;31;20160;-70
2023/01/14 10:55:57;;;;;;;7.00;3.70;;;;;;;7.58;100.00;99306.19;4484609;32;20551;-70
2023/01/14 10:58:30;;;;;;;7.68;3.62;;;;;;;7.62;100.00;99296.41;4485613;31;20542;-70
2023/01/14 11:01:06;;;;;;;9.13;4.28;;;;;;;7.83;100.00;99288.88;4484076;32;20167;-70
2023/01/14 11:03:41;;;;;;;8.35;4.10;;;;;;;8.10;100.00;99298.28;4485504;31;20540;-70
2023/01/14 11:06:11;;;;;;;8.02;3.97;;;;;;;8.18;100.00;99299.44;4485544;32;20548;-70
2023/01/14 11:08:47;;;;;;;9.02;3.28;;;;;;;8.23;100.00;99304.31;4485551;31;20594;-70
2023/01/14 11:11:25;;;;;;;13.32;3.97;;;;;;;7.94;100.00;99294.16;4469822;32;20162;-70
2023/01/14 11:13:53;;;;;;;10.88;4.03;;;;;;;7.84;100.00;99306.16;4468638;32;20107;-70
2023/01/14 11:16:30;;;;;;;6.82;3.12;;;;;;;7.98;100.00;99297.41;4469792;32;20168;-70
2023/01/14 11:19:20;;;;;;;8.23;3.85;;;;;;;7.96;100.00;99294.91;4469989;32;20160;-70
2023/01/14 11:21:50;;;;;;;11.88;4.43;;;;;;;8.02;100.00;99290.19;4476048;31;20171;-70
2023/01/14 11:24:36;;;;;;;7.03;3.72;;;;;;;8.05;100.00;99282.97;4501245;31;20541;-70
2023/01/14 11:27:06;;;;;;;10.43;4.50;;;;;;;8.14;100.00;99274.47;4499941;31;20151;-70
2023/01/14 11:29:36;;;;;;;6.22;3.30;;;;;;;8.03;100.00;99282.25;4499879;31;20142;-70
2023/01/14 11:32:08;;;;;;;8.02;3.85;;;;;;;7.89;100.00;99275.41;4501037;31;20092;-70
2023/01/14 11:34:49;;;;;;;6.97;3.20;;;;;;;7.75;100.00;99272.91;4501447;31;20163;-70
2023/01/14 11:37:19;;;;;;;7.45;3.05;;;;;;;7.72;100.00;99268.75;4499967;31;20493;-70
2023/01/14 11:39:51;;;;;;;5.65;2.53;;;;;;;7.57;100.00;99275.88;4500027;31;20107;-70
2023/01/14 11:42:37;;;;;;;7.53;3.15;;;;;;;7.55;100.00;99275.13;4499850;31;20158;-70
2023/01/14 11:45:10;;;;;;;8.00;3.42;;;;;;;7.40;100.00;99278.78;4499624;31;20108;-70
2023/01/14 11:48:22;;;;;;;6.45;2.75;;;;;;;7.37;100.00;99285.03;4501217;31;20153;-70
2023/01/14 11:50:56;;;;;;;6.62;2.70;;;;;;;7.48;100.00;99276.50;4494634;31;20096;-70
2023/01/14 11:53:26;;;;;;;10.70;3.03;;;;;;;7.70;100.00;99275.00;4500910;31;20426;-70
2023/01/14 11:55:55;;;;;;;8.68;2.62;;;;;;;7.70;100.00;99259.38;4500020;31;20140;-70
2023/01/14 11:58:30;;;;;;;5.93;3.10;;;;;;;7.66;100.00;99252.69;4500801;31;20092;-70
2023/01/14 12:01:31;;;;;;;3.87;2.20;;;;;;;7.73;100.00;99253.94;4500903;31;20178;-70
2023/01/14 12:04:06;;;;;;;7.60;2.67;;;;;;;7.70;100.00;99256.75;4423072;32;20438;-70
2023/01/14 12:06:37;;;;;;;;;;;;;;;7.50;100.00;99253.75;4423854;32;20146;-70
2023/01/14 12:09:05;;;;;;;4.25;2.45;;;;;;;7.40;100.00;99244.88;4421308;32;20209;-70
2023/01/14 12:11:52;;;;;;;3.97;2.12;;;;;;;7.48;100.00;99250.44;4407138;32;20171;-70